createdAt,value
2019-01-12T00:01:36.238Z,39.03
2019-01-12T00:04:03.297Z,37.97
2019-01-12T00:06:29.914Z,33.10
2019-01-12T00:08:56.377Z,30.67
2019-01-12T00:11:23.006Z,40.80
2019-01-12T00:13:50.065Z,29.93
2019-01-12T00:16:16.688Z,43.77
2019-01-12T00:18:43.253Z,36.87
2019-01-12T00:21:09.774Z,35.53
2019-01-12T00:23:36.431Z,37.20
2019-01-12T00:26:03.279Z,40.97
2019-01-12T00:28:29.931Z,39.80
2019-01-12T00:30:57.462Z,32.47
2019-01-12T00:33:24.144Z,40.20
2019-01-12T00:35:50.762Z,41.47
2019-01-12T00:38:17.420Z,39.63
2019-01-12T00:40:43.953Z,24.20
2019-01-12T00:43:10.504Z,31.77
2019-01-12T00:45:36.933Z,30.00
2019-01-12T00:48:05.202Z,39.37
2019-01-12T00:50:31.711Z,32.50
2019-01-12T00:52:58.372Z,38.53
2019-01-12T00:55:25.696Z,40.67
2019-01-12T00:57:53.258Z,32.30
2019-01-12T01:00:21.981Z,37.03
2019-01-12T01:02:50.216Z,29.70
2019-01-12T01:05:16.968Z,37.07
2019-01-12T01:07:43.796Z,24.00
2019-01-12T01:10:13.845Z,44.97
2019-01-12T01:12:40.370Z,32.23
2019-01-12T01:15:08.939Z,32.33
2019-01-12T01:17:35.583Z,37.13
2019-01-12T01:20:04.758Z,35.97
2019-01-12T01:22:31.284Z,29.07
2019-01-12T01:24:57.875Z,30.27
2019-01-12T01:27:24.391Z,31.83
2019-01-12T01:29:50.948Z,33.37
2019-01-12T01:32:17.482Z,40.00
2019-01-12T01:34:44.036Z,36.10
2019-01-12T01:37:10.569Z,35.37
2019-01-12T01:39:37.550Z,24.40
2019-01-12T01:42:04.141Z,37.47
2019-01-12T01:44:30.706Z,31.07
2019-01-12T01:46:57.272Z,35.17
2019-01-12T01:49:23.815Z,22.80
2019-01-12T01:51:50.345Z,27.60
2019-01-12T01:54:17.033Z,36.20
2019-01-12T01:56:43.657Z,25.67
2019-01-12T01:59:10.236Z,32.80
2019-01-12T02:01:37.803Z,31.37
2019-01-12T02:04:04.421Z,32.87
2019-01-12T02:06:30.950Z,28.63
2019-01-12T02:08:57.703Z,33.20
2019-01-12T02:11:24.229Z,27.77
2019-01-12T02:13:50.769Z,31.10
2019-01-12T02:16:17.448Z,34.10
2019-01-12T02:18:44.125Z,29.17
2019-01-12T02:21:11.243Z,34.33
2019-01-12T02:23:38.703Z,20.60
2019-01-12T02:26:06.336Z,27.07
2019-01-12T02:28:32.986Z,23.83
2019-01-12T02:30:59.641Z,29.30
2019-01-12T02:33:26.269Z,29.10
2019-01-12T02:35:52.926Z,34.17
2019-01-12T02:38:19.454Z,19.83
2019-01-12T02:40:46.107Z,28.43
2019-01-12T02:43:12.627Z,27.43
2019-01-12T02:45:39.282Z,31.37
2019-01-12T02:48:05.805Z,25.93
2019-01-12T02:50:32.363Z,26.00
2019-01-12T02:52:58.893Z,33.23
2019-01-12T02:55:25.546Z,25.53
2019-01-12T02:57:52.085Z,25.63
2019-01-12T03:00:18.737Z,28.03
2019-01-12T03:02:45.360Z,20.77
2019-01-12T03:05:12.318Z,23.03
2019-01-12T03:07:39.040Z,27.33
2019-01-12T03:10:08.925Z,17.43
2019-01-12T03:12:35.425Z,23.17
2019-01-12T03:15:02.284Z,18.20
2019-01-12T03:17:28.871Z,22.90
2019-01-12T03:19:55.468Z,17.20
2019-01-12T03:22:22.104Z,24.30
2019-01-12T03:24:48.650Z,19.80
2019-01-12T03:27:15.177Z,21.60
2019-01-12T03:29:42.436Z,21.67
2019-01-12T03:32:09.061Z,20.77
2019-01-12T03:34:36.069Z,26.10
2019-01-12T03:37:03.036Z,22.77
2019-01-12T03:39:29.763Z,24.97
2019-01-12T03:41:56.427Z,28.77
2019-01-12T03:44:22.958Z,23.67
2019-01-12T03:46:49.707Z,16.37
2019-01-12T03:49:16.424Z,17.07
2019-01-12T03:51:43.182Z,23.37
2019-01-12T03:54:10.808Z,29.40
2019-01-12T03:56:37.669Z,21.50
2019-01-12T03:59:04.492Z,24.63
2019-01-12T04:01:31.162Z,21.23
2019-01-12T04:03:57.974Z,18.07
2019-01-12T04:06:24.623Z,23.93
2019-01-12T04:08:51.245Z,22.00
2019-01-12T04:11:18.627Z,19.10
2019-01-12T04:13:45.367Z,24.70
2019-01-12T04:16:12.018Z,20.73
2019-01-12T04:18:38.755Z,20.53
2019-01-12T04:21:05.506Z,19.90
2019-01-12T04:23:32.141Z,18.87
2019-01-12T04:25:58.797Z,18.43
2019-01-12T04:28:25.320Z,20.27
2019-01-12T04:30:52.032Z,18.07
2019-01-12T04:33:18.487Z,21.33
2019-01-12T04:35:46.574Z,26.77
2019-01-12T04:38:13.191Z,17.90
2019-01-12T04:40:39.979Z,16.50
2019-01-12T04:43:06.467Z,20.97
2019-01-12T04:45:33.225Z,13.90
2019-01-12T04:47:59.969Z,20.07
2019-01-12T04:50:26.994Z,16.63
2019-01-12T04:52:53.752Z,17.30
2019-01-12T04:55:20.472Z,18.50
2019-01-12T04:57:47.164Z,16.23
2019-01-12T05:00:15.296Z,17.50
2019-01-12T05:02:42.047Z,22.57
2019-01-12T05:05:08.966Z,25.30
2019-01-12T05:07:35.724Z,23.37
2019-01-12T05:10:05.472Z,18.60
2019-01-12T05:12:32.117Z,22.17
2019-01-12T05:15:00.344Z,23.40
2019-01-12T05:17:27.097Z,22.17
2019-01-12T05:19:53.623Z,19.17
2019-01-12T05:22:20.282Z,19.10
2019-01-12T05:24:46.696Z,16.60
2019-01-12T05:27:13.350Z,21.63
2019-01-12T05:29:39.976Z,22.30
2019-01-12T05:32:06.617Z,16.83
2019-01-12T05:34:34.736Z,16.80
2019-01-12T05:37:01.391Z,23.33
2019-01-12T05:39:28.112Z,15.97
2019-01-12T05:41:54.878Z,17.70
2019-01-12T05:44:21.494Z,21.43
2019-01-12T05:46:48.061Z,27.30
2019-01-12T05:49:14.703Z,26.37
2019-01-12T05:51:42.301Z,18.83
2019-01-12T05:54:08.825Z,20.70
2019-01-12T05:56:35.480Z,22.33
2019-01-12T05:59:02.010Z,19.80
2019-01-12T06:01:28.577Z,19.40
2019-01-12T06:03:55.110Z,17.10
2019-01-12T06:06:21.661Z,16.13
2019-01-12T06:08:48.292Z,13.63
2019-01-12T06:11:15.033Z,22.03
2019-01-12T06:13:41.577Z,14.50
2019-01-12T06:16:08.189Z,14.80
2019-01-12T06:18:34.770Z,15.63
2019-01-12T06:21:01.399Z,15.63
2019-01-12T06:23:28.051Z,22.13
2019-01-12T06:25:54.691Z,23.20
2019-01-12T06:28:21.353Z,17.70
2019-01-12T06:30:47.969Z,13.43
2019-01-12T06:33:14.721Z,14.43
2019-01-12T06:35:41.350Z,15.77
2019-01-12T06:38:08.006Z,13.60
2019-01-12T06:40:34.532Z,13.87
2019-01-12T06:45:34.414Z,11.80
2019-01-12T06:48:01.172Z,11.70
2019-01-12T06:50:27.801Z,12.77
2019-01-12T06:52:54.344Z,11.97
2019-01-12T06:55:21.076Z,10.20
2019-01-12T06:57:47.766Z,8.23
2019-01-12T07:00:16.200Z,10.10
2019-01-12T07:02:44.055Z,7.50
2019-01-12T07:05:10.777Z,8.57
2019-01-12T07:07:37.340Z,6.80
2019-01-12T07:10:07.174Z,10.47
2019-01-12T07:12:33.863Z,9.30
2019-01-12T07:15:01.085Z,9.93
2019-01-12T07:17:27.773Z,7.87
2019-01-12T07:19:54.496Z,6.77
2019-01-12T07:22:21.243Z,5.67
2019-01-12T07:24:49.468Z,9.63
2019-01-12T07:27:16.131Z,8.80
2019-01-12T07:29:42.653Z,5.93
2019-01-12T07:32:09.312Z,13.00
2019-01-12T07:34:36.037Z,9.30
2019-01-12T07:37:02.925Z,8.83
2019-01-12T07:39:29.562Z,13.73
2019-01-12T07:41:57.176Z,6.53
2019-01-12T07:44:23.730Z,6.40
2019-01-12T07:46:50.249Z,5.70
2019-01-12T07:49:16.900Z,8.57
2019-01-12T07:51:43.420Z,5.43
2019-01-12T07:54:10.372Z,5.17
2019-01-12T07:56:36.925Z,8.17
2019-01-12T07:59:03.484Z,5.20
2019-01-12T08:01:30.429Z,6.10
2019-01-12T08:03:57.681Z,6.30
2019-01-12T08:06:24.993Z,7.70
2019-01-12T08:08:51.670Z,7.77
2019-01-12T08:11:18.298Z,7.07
2019-01-12T08:13:44.959Z,8.57
2019-01-12T08:16:11.578Z,10.20
2019-01-12T08:18:38.824Z,10.40
2019-01-12T08:21:05.457Z,8.70
2019-01-12T08:23:32.105Z,9.30
2019-01-12T08:25:58.734Z,9.63
2019-01-12T08:28:25.390Z,8.77
2019-01-12T08:30:52.010Z,8.50
2019-01-12T08:33:18.654Z,9.93
2019-01-12T08:35:45.281Z,10.63
2019-01-12T08:38:11.932Z,6.37
2019-01-12T08:40:38.572Z,6.00
2019-01-12T08:43:05.230Z,6.20
2019-01-12T08:45:31.972Z,6.93
2019-01-12T08:47:58.557Z,5.40
2019-01-12T08:50:25.102Z,6.83
2019-01-12T08:52:51.688Z,10.67
2019-01-12T08:55:18.413Z,5.73
2019-01-12T08:57:45.269Z,6.77
2019-01-12T09:00:15.204Z,4.77
2019-01-12T09:02:41.768Z,5.50
2019-01-12T09:05:08.489Z,7.53
2019-01-12T09:07:35.043Z,7.90
2019-01-12T09:10:02.390Z,6.63
2019-01-12T09:12:28.966Z,4.83
2019-01-12T09:14:55.637Z,5.53
2019-01-12T09:17:22.168Z,4.30
2019-01-12T09:19:48.829Z,1.90
2019-01-12T09:22:15.348Z,2.00
2019-01-12T09:24:42.012Z,1.67
2019-01-12T09:27:08.541Z,1.40
2019-01-12T09:29:35.086Z,1.20
2019-01-12T09:32:01.661Z,1.20
2019-01-12T09:34:28.216Z,1.23
2019-01-12T09:36:54.740Z,2.50
2019-01-12T09:39:21.740Z,3.63
2019-01-12T09:41:48.395Z,3.50
2019-01-12T09:44:15.209Z,3.00
2019-01-12T09:46:41.796Z,2.40
2019-01-12T09:49:08.449Z,2.83
2019-01-12T09:51:35.088Z,2.70
2019-01-12T09:54:01.875Z,2.77
2019-01-12T09:56:28.389Z,3.00
2019-01-12T09:58:54.968Z,2.20
2019-01-12T10:01:21.569Z,1.70
2019-01-12T10:03:48.201Z,3.67
2019-01-12T10:06:15.828Z,1.43
2019-01-12T10:08:43.702Z,2.17
2019-01-12T10:11:10.437Z,2.67
2019-01-12T10:13:38.760Z,3.53
2019-01-12T10:16:07.049Z,3.23
2019-01-12T10:18:33.719Z,6.43
2019-01-12T10:21:00.841Z,4.90
2019-01-12T10:23:27.577Z,7.13
2019-01-12T10:25:55.141Z,4.53
2019-01-12T10:28:23.369Z,10.50
2019-01-12T10:30:50.237Z,4.47
2019-01-12T10:33:17.416Z,5.87
2019-01-12T10:35:44.044Z,6.57
2019-01-12T10:38:10.928Z,7.47
2019-01-12T10:40:37.648Z,6.23
2019-01-12T10:43:04.425Z,6.97
2019-01-12T10:45:31.193Z,6.27
2019-01-12T10:47:57.887Z,5.07
2019-01-12T10:50:27.778Z,4.83
2019-01-12T10:52:54.520Z,8.60
2019-01-12T10:55:22.000Z,6.70
2019-01-12T10:57:49.917Z,5.03
2019-01-12T11:00:29.694Z,7.67
2019-01-12T11:02:59.241Z,5.97
2019-01-12T11:05:26.395Z,6.30
2019-01-12T11:07:52.955Z,7.77
2019-01-12T11:10:19.534Z,5.77
2019-01-12T11:12:47.337Z,6.90
2019-01-12T11:15:16.964Z,6.43
2019-01-12T11:17:43.486Z,7.67
2019-01-12T11:20:10.612Z,7.07
2019-01-12T11:22:37.392Z,5.90
2019-01-12T11:25:07.421Z,5.90
2019-01-12T11:27:34.090Z,5.50
2019-01-12T11:30:00.716Z,9.30
2019-01-12T11:32:27.497Z,6.20
2019-01-12T11:34:54.125Z,4.87
2019-01-12T11:37:20.770Z,5.53
2019-01-12T11:39:47.553Z,5.10
2019-01-12T11:42:14.909Z,6.10
2019-01-12T11:44:41.581Z,6.23
2019-01-12T11:47:08.172Z,9.63
2019-01-12T11:49:34.753Z,8.90
2019-01-12T11:52:01.483Z,9.30
2019-01-12T11:54:28.757Z,7.03
2019-01-12T11:56:56.476Z,8.53
2019-01-12T11:59:23.053Z,8.90
2019-01-12T12:01:49.692Z,9.77
2019-01-12T12:04:16.360Z,10.50
2019-01-12T12:06:42.944Z,10.53
2019-01-12T12:09:09.475Z,9.80
2019-01-12T12:11:36.060Z,11.83
2019-01-12T12:14:02.840Z,10.03
2019-01-12T12:16:29.376Z,10.50
2019-01-12T12:18:56.147Z,12.23
2019-01-12T12:21:22.721Z,10.00
2019-01-12T12:23:49.240Z,11.70
2019-01-12T12:26:15.826Z,10.30
2019-01-12T12:28:42.365Z,9.00
2019-01-12T12:31:08.937Z,8.10
2019-01-12T12:33:35.554Z,8.63
2019-01-12T12:36:02.234Z,8.57
2019-01-12T12:38:28.761Z,8.27
2019-01-12T12:40:55.376Z,7.83
2019-01-12T12:43:21.901Z,7.47
2019-01-12T12:45:48.474Z,8.57
2019-01-12T12:48:16.701Z,7.70
2019-01-12T12:50:43.361Z,8.20
2019-01-12T12:53:09.933Z,7.80
2019-01-12T12:55:36.449Z,8.27
2019-01-12T12:58:03.741Z,7.60
2019-01-12T13:00:30.242Z,8.97
2019-01-12T13:02:56.931Z,8.00
2019-01-12T13:05:23.761Z,9.00
2019-01-12T13:07:50.392Z,9.13
2019-01-12T13:10:20.274Z,9.60
2019-01-12T13:12:47.160Z,10.40
2019-01-12T13:15:13.941Z,9.13
2019-01-12T13:17:42.250Z,9.13
2019-01-12T13:20:12.152Z,10.77
2019-01-12T13:22:38.777Z,10.37
2019-01-12T13:25:07.493Z,10.87
2019-01-12T13:27:39.782Z,11.50
2019-01-12T13:30:10.090Z,10.00
2019-01-12T13:32:38.425Z,10.97
2019-01-12T13:35:06.439Z,9.27
2019-01-12T13:37:32.960Z,11.60
2019-01-12T13:39:59.529Z,10.13
2019-01-12T13:42:26.195Z,10.03
2019-01-12T13:44:52.829Z,12.73
2019-01-12T13:47:20.997Z,10.43
2019-01-12T13:49:48.085Z,9.37
2019-01-12T13:52:14.934Z,11.40
2019-01-12T13:54:41.568Z,10.73
2019-01-12T13:57:08.414Z,9.97
2019-01-12T13:59:36.052Z,9.70
2019-01-12T14:02:03.020Z,10.93
2019-01-12T14:04:29.746Z,10.57
2019-01-12T14:06:56.520Z,11.07
2019-01-12T14:09:23.150Z,10.83
2019-01-12T14:11:49.867Z,12.60
2019-01-12T14:14:16.686Z,12.30
2019-01-12T14:16:43.417Z,13.43
2019-01-12T14:19:10.093Z,10.77
2019-01-12T14:21:36.629Z,11.00
2019-01-12T14:24:03.486Z,12.10
2019-01-12T14:26:30.113Z,12.33
2019-01-12T14:28:56.779Z,12.93
2019-01-12T14:31:23.559Z,11.10
2019-01-12T14:33:50.540Z,11.20
2019-01-12T14:36:17.213Z,10.30
2019-01-12T14:38:43.881Z,10.73
2019-01-12T14:41:11.189Z,10.40
2019-01-12T14:43:38.008Z,10.00
2019-01-12T14:46:04.768Z,9.97
2019-01-12T14:48:31.292Z,10.00
2019-01-12T14:50:59.574Z,10.20
2019-01-12T14:53:26.545Z,9.87
2019-01-12T14:55:53.356Z,8.70
2019-01-12T14:58:21.585Z,8.73
2019-01-12T15:00:48.550Z,8.60
2019-01-12T15:03:15.733Z,9.33
2019-01-12T15:05:43.498Z,9.77
2019-01-12T15:08:10.258Z,9.73
2019-01-12T15:10:36.884Z,8.60
2019-01-12T15:13:04.369Z,8.70
2019-01-12T15:15:31.145Z,8.93
2019-01-12T15:17:58.045Z,8.33
2019-01-12T15:20:25.924Z,9.10
2019-01-12T15:22:52.551Z,9.50
2019-01-12T15:25:19.764Z,9.53
2019-01-12T15:27:46.309Z,9.00
2019-01-12T15:30:20.445Z,8.07
2019-01-12T15:32:47.168Z,9.63
2019-01-12T15:35:15.021Z,8.27
2019-01-12T15:37:41.462Z,8.60
2019-01-12T15:40:11.762Z,7.63
2019-01-12T15:42:38.488Z,7.47
2019-01-12T15:45:09.462Z,8.13
2019-01-12T15:47:36.149Z,6.90
2019-01-12T15:50:08.182Z,7.37
2019-01-12T15:52:34.808Z,8.83
2019-01-12T15:55:01.385Z,5.63
2019-01-12T15:57:27.935Z,6.50
2019-01-12T15:59:54.610Z,5.57
2019-01-12T16:02:21.176Z,5.93
2019-01-12T16:04:47.853Z,7.23
2019-01-12T16:07:14.487Z,5.40
2019-01-12T16:09:41.066Z,5.43
2019-01-12T16:12:07.597Z,6.80
2019-01-12T16:14:34.127Z,7.20
2019-01-12T16:17:01.301Z,5.90
2019-01-12T16:19:27.858Z,9.40
2019-01-12T16:21:54.507Z,10.00
2019-01-12T16:24:21.641Z,6.90
2019-01-12T16:26:48.425Z,8.93
2019-01-12T16:29:15.180Z,9.80
2019-01-12T16:31:42.050Z,10.50
2019-01-12T16:34:09.482Z,6.23
2019-01-12T16:36:36.237Z,4.80
2019-01-12T16:39:06.019Z,7.53
2019-01-12T16:43:47.936Z,5.70
2019-01-12T16:46:14.518Z,6.33
2019-01-12T16:48:41.202Z,9.87
2019-01-12T16:51:08.012Z,10.50
2019-01-12T16:53:34.636Z,7.45
2019-01-12T16:56:01.309Z,7.57
2019-01-12T16:58:30.582Z,8.07
2019-01-12T17:00:56.561Z,11.93
2019-01-12T17:03:23.136Z,7.67
2019-01-12T17:05:49.700Z,5.30
2019-01-12T17:08:16.332Z,14.00
2019-01-12T17:10:43.954Z,8.40
2019-01-12T17:13:11.473Z,10.13
2019-01-12T17:15:38.231Z,12.30
2019-01-12T17:18:06.458Z,12.73
2019-01-12T17:20:33.228Z,8.97
2019-01-12T17:22:59.848Z,11.57
2019-01-12T17:25:26.854Z,11.37
2019-01-12T17:27:53.707Z,9.80
2019-01-12T17:30:22.797Z,13.27
2019-01-12T17:32:49.429Z,10.57
2019-01-12T17:35:17.819Z,10.83
2019-01-12T17:37:45.427Z,9.00
2019-01-12T17:40:13.409Z,8.90
2019-01-12T17:42:40.138Z,9.27
2019-01-12T17:45:10.177Z,13.60
2019-01-12T17:47:37.178Z,10.37
2019-01-12T17:50:07.771Z,12.10
2019-01-12T17:52:34.336Z,9.80
2019-01-12T17:55:00.893Z,10.03
2019-01-12T17:57:27.562Z,8.57
2019-01-12T17:59:54.098Z,8.40
2019-01-12T18:02:20.673Z,9.10
2019-01-12T18:04:47.201Z,9.40
2019-01-12T18:07:13.756Z,12.40
2019-01-12T18:09:40.450Z,7.73
2019-01-12T18:12:06.876Z,9.73
2019-01-12T18:14:33.457Z,9.33
2019-01-12T18:16:59.983Z,7.60
2019-01-12T18:19:26.554Z,7.43
2019-01-12T18:21:53.090Z,9.57
2019-01-12T18:24:19.778Z,12.57
2019-01-12T18:26:46.298Z,8.70
2019-01-12T18:29:12.904Z,8.60
2019-01-12T18:31:39.517Z,15.93
2019-01-12T18:34:06.142Z,9.87
2019-01-12T18:36:32.742Z,10.90
2019-01-12T18:38:59.314Z,9.77
2019-01-12T18:41:25.885Z,12.77
2019-01-12T18:43:52.568Z,12.90
2019-01-12T18:46:19.128Z,10.70
2019-01-12T18:48:45.716Z,9.67
2019-01-12T18:51:12.127Z,9.63
2019-01-12T18:53:38.756Z,10.60
2019-01-12T18:56:05.433Z,11.30
2019-01-12T18:58:31.961Z,12.30
2019-01-12T19:00:58.519Z,12.90
2019-01-12T19:03:25.046Z,7.40
2019-01-12T19:05:52.026Z,7.37
2019-01-12T19:08:18.689Z,8.80
2019-01-12T19:10:45.626Z,11.00
2019-01-12T19:13:12.349Z,8.07
2019-01-12T19:15:39.010Z,10.93
2019-01-12T19:18:05.690Z,8.57
2019-01-12T19:20:32.270Z,8.33
2019-01-12T19:22:59.744Z,8.10
2019-01-12T19:25:26.488Z,10.43
2019-01-12T19:27:53.011Z,8.53
2019-01-12T19:30:21.581Z,10.50
2019-01-12T19:32:48.376Z,10.23
2019-01-12T19:35:15.019Z,11.10
2019-01-12T19:37:42.043Z,10.13
2019-01-12T19:40:11.409Z,7.53
2019-01-12T19:42:38.229Z,9.27
2019-01-12T19:45:07.547Z,10.57
2019-01-12T19:47:34.066Z,8.10
2019-01-12T19:50:01.204Z,7.70
2019-01-12T19:52:27.861Z,7.57
2019-01-12T19:54:54.486Z,7.33
2019-01-12T19:57:21.047Z,8.60
2019-01-12T19:59:47.821Z,7.13
2019-01-12T20:02:16.484Z,9.10
2019-01-12T20:04:43.070Z,10.87
2019-01-12T20:07:09.773Z,10.63
2019-01-12T20:09:36.502Z,10.57
2019-01-12T20:12:03.275Z,13.57
2019-01-12T20:14:29.946Z,11.57
2019-01-12T20:16:56.736Z,9.80
2019-01-12T20:19:23.409Z,15.40
2019-01-12T20:21:49.980Z,7.70
2019-01-12T20:24:16.538Z,10.07
2019-01-12T20:26:43.061Z,11.13
2019-01-12T20:29:10.046Z,8.13
2019-01-12T20:31:52.001Z,13.27
2019-01-12T20:34:25.057Z,15.93
2019-01-12T20:37:15.427Z,9.37
2019-01-12T20:40:03.657Z,11.50
2019-01-12T20:42:39.967Z,12.17
2019-01-12T20:45:36.326Z,9.50
2019-01-12T20:48:27.623Z,11.07
2019-01-12T20:51:03.515Z,14.23
2019-01-12T20:53:49.463Z,11.43
2019-01-12T20:56:22.938Z,12.90
2019-01-12T20:58:59.593Z,7.97
2019-01-12T21:01:38.898Z,10.03
2019-01-12T21:04:29.358Z,8.80
2019-01-12T21:07:11.903Z,8.07
2019-01-12T21:10:05.002Z,9.40
2019-01-12T21:13:01.266Z,11.17
2019-01-12T21:15:31.897Z,8.37
2019-01-12T21:17:58.609Z,13.77
2019-01-12T21:20:25.327Z,6.17
2019-01-12T21:22:52.014Z,10.87
2019-01-12T21:25:18.632Z,12.43
2019-01-12T21:27:45.496Z,12.17
2019-01-12T21:30:15.317Z,7.47
2019-01-12T21:32:41.998Z,8.17
2019-01-12T21:35:09.065Z,10.97
2019-01-12T21:37:35.787Z,9.20
2019-01-12T21:40:06.076Z,8.23
2019-01-12T21:42:32.610Z,4.60
2019-01-12T21:44:59.150Z,8.47
2019-01-12T21:47:26.382Z,6.90
2019-01-12T21:49:52.958Z,7.57
2019-01-12T21:52:19.841Z,9.30
2019-01-12T21:54:46.508Z,9.07
2019-01-12T21:57:13.178Z,8.33
2019-01-12T21:59:42.575Z,8.70
2019-01-12T22:02:08.251Z,5.23
2019-01-12T22:04:35.060Z,2.87
2019-01-12T22:07:01.845Z,5.70
2019-01-12T22:09:28.469Z,5.63
2019-01-12T22:11:55.031Z,5.17
2019-01-12T22:14:21.661Z,6.20
2019-01-12T22:16:48.479Z,3.90
2019-01-12T22:19:15.116Z,2.73
2019-01-12T22:21:41.774Z,4.07
2019-01-12T22:24:08.391Z,2.70
2019-01-12T22:26:34.921Z,4.07
2019-01-12T22:29:01.501Z,3.50
2019-01-12T22:31:28.024Z,4.43
2019-01-12T22:33:54.601Z,3.60
2019-01-12T22:36:21.234Z,3.00
2019-01-12T22:38:48.022Z,1.30
2019-01-12T22:41:14.645Z,3.00
2019-01-12T22:43:41.321Z,3.30
2019-01-12T22:46:07.851Z,2.87
2019-01-12T22:48:34.621Z,2.87
2019-01-12T22:51:01.260Z,5.07
2019-01-12T22:53:28.021Z,1.93
2019-01-12T22:55:55.309Z,2.90
2019-01-12T22:58:23.341Z,4.23
2019-01-12T23:01:04.560Z,4.00
2019-01-12T23:03:32.834Z,3.43
2019-01-12T23:05:59.369Z,4.27
2019-01-12T23:08:25.952Z,2.97
2019-01-12T23:10:52.645Z,3.73
2019-01-12T23:13:19.284Z,4.23
2019-01-12T23:15:46.535Z,3.70
2019-01-12T23:18:13.274Z,5.00
2019-01-12T23:20:41.039Z,2.00
2019-01-12T23:23:07.734Z,3.73
2019-01-12T23:25:34.616Z,3.50
2019-01-12T23:28:02.363Z,5.20
2019-01-12T23:30:29.081Z,4.03
2019-01-12T23:32:55.769Z,4.90
2019-01-12T23:35:22.402Z,6.30
2019-01-12T23:37:49.515Z,5.90
2019-01-12T23:40:16.585Z,4.77
2019-01-12T23:42:43.258Z,6.83
2019-01-12T23:45:11.845Z,4.40
2019-01-12T23:47:38.868Z,3.57
2019-01-12T23:50:10.426Z,5.60
2019-01-12T23:52:36.968Z,3.93
2019-01-12T23:55:04.538Z,3.43
2019-01-12T23:57:31.217Z,4.00
2019-01-12T23:59:57.770Z,4.67
